Bladen, Nebraska
Current Conditions -  °F | °C
As of 9:53 AM on Friday 24 Oct 2014 (Local Time) from KHSI Reporting Station
Haze Haze  
Wind Chill: 57°   Ceiling: Unl
Heat Index: 57°   Visibility: 6mi
Dew Point: 52°   Wind: 6mph
Humidity: 83%   Direction: 230°SW
Pressure: 29.96"   Gusts: NA
Location:  40.32°N, 98.59°W
Report Text: KHSI 241453Z AUTO 23005KT 6SM HZ CLR 14/11 A2996 RMK AO2 SLP143 T01390111 53003
Loading
Personal Weather Stations






























Interactive Weather Map
Tropical Storm Tracking
New forecast layout! Learn more

10-Day Weather Forecast

Advertisements
Track Severe Weather on mobile